createdAt,value
2022-10-22T00:01:36.952Z,14.66
2022-10-22T00:04:04.017Z,14.68
2022-10-22T00:06:30.592Z,14.68
2022-10-22T00:08:56.977Z,14.68
2022-10-22T00:11:23.438Z,14.76
2022-10-22T00:13:50.507Z,14.74
2022-10-22T00:16:16.987Z,14.67
2022-10-22T00:18:43.397Z,14.69
2022-10-22T00:21:10.061Z,14.67
2022-10-22T00:23:36.492Z,14.70
2022-10-22T00:26:02.952Z,14.69
2022-10-22T00:28:29.351Z,14.64
2022-10-22T00:31:00.330Z,14.70
2022-10-22T00:33:28.368Z,14.65
2022-10-22T00:35:55.037Z,14.72
2022-10-22T00:38:21.677Z,14.72
2022-10-22T00:40:48.202Z,14.64
2022-10-22T00:43:17.393Z,14.67
2022-10-22T00:45:44.609Z,14.68
2022-10-22T00:48:13.757Z,14.75
2022-10-22T00:50:45.931Z,14.75
2022-10-22T00:53:37.331Z,14.67
2022-10-22T00:56:04.390Z,14.66
2022-10-22T00:58:34.847Z,14.57
2022-10-22T01:01:02.570Z,14.66
2022-10-22T01:03:29.317Z,14.66
2022-10-22T01:06:00.838Z,14.67
2022-10-22T01:08:30.555Z,14.68
2022-10-22T01:11:15.439Z,14.71
2022-10-22T01:14:04.612Z,14.67
2022-10-22T01:16:43.656Z,14.68
2022-10-22T01:19:54.586Z,14.72
2022-10-22T01:22:43.959Z,14.71
2022-10-22T01:25:26.859Z,14.76
2022-10-22T01:27:53.776Z,14.76
2022-10-22T01:30:20.750Z,14.80
2022-10-22T01:32:54.486Z,14.78
2022-10-22T01:35:29.171Z,14.73
2022-10-22T01:38:00.898Z,14.72
2022-10-22T01:40:28.902Z,14.74
2022-10-22T01:43:00.678Z,14.69
2022-10-22T01:45:30.222Z,14.72
2022-10-22T01:48:14.729Z,14.72
2022-10-22T01:51:02.201Z,14.65
2022-10-22T01:53:40.923Z,14.63
2022-10-22T01:56:16.277Z,14.66
2022-10-22T01:59:08.196Z,14.67
2022-10-22T02:01:54.530Z,14.63
2022-10-22T02:04:29.960Z,14.62
2022-10-22T02:07:01.303Z,14.65
2022-10-22T02:09:29.636Z,14.65
2022-10-22T02:11:59.689Z,14.66
2022-10-22T02:14:29.469Z,14.61
2022-10-22T02:16:58.397Z,14.63
2022-10-22T02:19:27.651Z,14.58
2022-10-22T02:21:54.989Z,14.56
2022-10-22T02:24:22.345Z,14.54
2022-10-22T02:27:33.442Z,14.55
2022-10-22T02:30:12.878Z,14.63
2022-10-22T02:33:06.710Z,14.64
2022-10-22T02:35:34.090Z,14.57
2022-10-22T02:38:01.391Z,14.63
2022-10-22T02:40:30.510Z,14.58
2022-10-22T02:42:56.954Z,14.61
2022-10-22T02:45:23.621Z,14.62
2022-10-22T02:47:50.193Z,14.64
2022-10-22T02:50:17.065Z,14.70
2022-10-22T02:52:43.671Z,14.65
2022-10-22T02:55:10.645Z,14.65
2022-10-22T02:57:37.376Z,14.64
2022-10-22T03:00:06.207Z,14.64
2022-10-22T03:02:32.589Z,14.64
2022-10-22T03:04:59.292Z,14.61
2022-10-22T03:07:25.664Z,14.60
2022-10-22T03:09:52.207Z,14.58
2022-10-22T03:12:18.654Z,14.59
2022-10-22T03:14:45.081Z,14.56
2022-10-22T03:17:11.597Z,14.51
2022-10-22T03:19:37.993Z,14.47
2022-10-22T03:22:11.417Z,14.46
2022-10-22T03:24:44.262Z,14.43
2022-10-22T03:27:14.026Z,14.43
2022-10-22T03:29:41.884Z,14.44
2022-10-22T03:32:08.570Z,14.43
2022-10-22T03:34:35.328Z,14.40
2022-10-22T03:37:02.431Z,14.32
2022-10-22T03:39:31.849Z,14.38
2022-10-22T03:41:58.680Z,14.37
2022-10-22T03:44:25.901Z,14.41
2022-10-22T03:46:52.266Z,14.44
2022-10-22T03:49:18.677Z,14.37
2022-10-22T03:51:45.198Z,14.34
2022-10-22T03:54:11.751Z,14.45
2022-10-22T03:56:38.148Z,14.28
2022-10-22T03:59:04.714Z,14.36
2022-10-22T04:01:31.508Z,14.36
2022-10-22T04:03:58.435Z,14.40
2022-10-22T04:06:25.213Z,14.28
2022-10-22T04:08:51.652Z,14.36
2022-10-22T04:11:18.313Z,14.38
2022-10-22T04:13:44.862Z,14.46
2022-10-22T04:16:19.544Z,14.47
2022-10-22T04:18:47.560Z,14.42
2022-10-22T04:21:16.684Z,14.42
2022-10-22T04:23:48.012Z,14.39
2022-10-22T04:26:15.646Z,14.38
2022-10-22T04:28:42.848Z,14.38
2022-10-22T04:31:11.290Z,14.35
2022-10-22T04:33:38.179Z,14.36
2022-10-22T04:36:13.552Z,14.36
2022-10-22T04:38:41.133Z,14.33
2022-10-22T04:41:17.869Z,14.34
2022-10-22T04:43:45.451Z,14.29
2022-10-22T04:46:13.522Z,14.25
2022-10-22T04:48:42.401Z,14.25
2022-10-22T04:51:12.125Z,14.20
2022-10-22T04:53:40.437Z,14.17
2022-10-22T04:56:08.035Z,14.11
2022-10-22T04:58:34.650Z,14.05
2022-10-22T05:01:01.198Z,13.99
2022-10-22T05:03:27.635Z,14.01
2022-10-22T05:05:53.977Z,14.02
2022-10-22T05:08:20.355Z,13.99
2022-10-22T05:10:46.730Z,13.99
2022-10-22T05:13:13.152Z,13.93
2022-10-22T05:15:39.496Z,13.95
2022-10-22T05:18:05.905Z,13.93
2022-10-22T05:20:32.244Z,13.95
2022-10-22T05:22:58.643Z,13.96
2022-10-22T05:25:25.109Z,13.94
2022-10-22T05:27:51.542Z,13.94
2022-10-22T05:30:18.040Z,13.92
2022-10-22T05:32:44.873Z,13.95
2022-10-22T05:35:11.254Z,13.92
2022-10-22T05:37:37.784Z,13.91
2022-10-22T05:40:19.170Z,13.87
2022-10-22T05:42:52.152Z,13.87
2022-10-22T05:45:18.554Z,13.83
2022-10-22T05:47:44.961Z,13.84
2022-10-22T05:50:11.364Z,13.82
2022-10-22T05:52:37.891Z,13.84
2022-10-22T05:55:04.897Z,13.82
2022-10-22T05:57:31.254Z,13.83
2022-10-22T05:59:57.651Z,13.82
2022-10-22T06:02:24.195Z,13.81
2022-10-22T06:04:50.642Z,13.83
2022-10-22T06:07:17.062Z,13.83
2022-10-22T06:09:43.441Z,13.86
2022-10-22T06:12:12.224Z,13.90
2022-10-22T06:14:38.625Z,13.90
2022-10-22T06:17:04.946Z,13.91
2022-10-22T06:19:31.361Z,13.93
2022-10-22T06:21:57.798Z,13.91
2022-10-22T06:24:24.250Z,13.88
2022-10-22T06:26:51.800Z,13.90
2022-10-22T06:29:18.777Z,13.95
2022-10-22T06:31:45.267Z,14.00
2022-10-22T06:34:13.407Z,14.00
2022-10-22T06:36:43.344Z,14.05
2022-10-22T06:39:12.885Z,14.06
2022-10-22T06:41:39.406Z,14.05
2022-10-22T06:44:05.833Z,14.03
2022-10-22T06:46:32.685Z,14.08
2022-10-22T06:49:01.456Z,14.05
2022-10-22T06:51:28.660Z,14.07
2022-10-22T06:53:57.411Z,14.10
2022-10-22T06:56:26.080Z,14.17
2022-10-22T06:58:53.997Z,14.19
2022-10-22T07:01:23.485Z,14.32
2022-10-22T07:03:51.583Z,14.36
2022-10-22T07:06:19.091Z,14.49
2022-10-22T07:08:45.672Z,14.61
2022-10-22T07:11:45.761Z,14.69
2022-10-22T07:14:13.321Z,14.77
2022-10-22T07:16:42.981Z,14.80
2022-10-22T07:19:09.327Z,14.86
2022-10-22T07:21:35.744Z,14.92
2022-10-22T07:24:02.221Z,15.09
2022-10-22T07:26:30.940Z,15.24
2022-10-22T07:28:57.701Z,15.37
2022-10-22T07:31:24.038Z,15.46
2022-10-22T07:33:50.765Z,15.42
2022-10-22T07:36:17.921Z,15.38
2022-10-22T07:38:49.275Z,15.39
2022-10-22T07:41:16.755Z,15.40
2022-10-22T07:43:43.231Z,15.47
2022-10-22T07:46:09.643Z,15.50
2022-10-22T07:48:37.077Z,15.59
2022-10-22T07:51:03.688Z,15.65
2022-10-22T07:53:30.255Z,15.74
2022-10-22T07:55:56.834Z,15.68
2022-10-22T07:58:24.021Z,15.70
2022-10-22T08:00:51.142Z,15.69
2022-10-22T08:03:18.503Z,15.70
2022-10-22T08:05:45.665Z,15.65
2022-10-22T08:08:14.072Z,15.52
2022-10-22T08:10:40.763Z,15.46
2022-10-22T08:13:07.630Z,15.44
2022-10-22T08:15:34.785Z,15.40
2022-10-22T08:18:01.215Z,15.31
2022-10-22T08:20:27.688Z,15.37
2022-10-22T08:22:54.366Z,15.32
2022-10-22T08:25:20.807Z,15.33
2022-10-22T08:27:47.365Z,15.30
2022-10-22T08:30:14.617Z,15.35
2022-10-22T08:32:41.565Z,15.33
2022-10-22T08:35:08.246Z,15.29
2022-10-22T08:37:34.749Z,15.33
2022-10-22T08:40:01.152Z,15.37
2022-10-22T08:43:02.927Z,15.34
2022-10-22T08:45:32.727Z,15.38
2022-10-22T08:47:59.550Z,15.38
2022-10-22T08:50:45.480Z,15.47
2022-10-22T08:53:16.265Z,15.45
2022-10-22T08:55:43.658Z,15.52
2022-10-22T08:58:29.525Z,15.59
2022-10-22T09:01:00.729Z,15.70
2022-10-22T09:03:44.197Z,15.81
2022-10-22T09:06:18.654Z,15.97
2022-10-22T09:08:46.682Z,16.07
2022-10-22T09:11:13.143Z,16.16
2022-10-22T09:13:44.903Z,16.13
2022-10-22T09:16:15.466Z,16.03
2022-10-22T09:18:51.935Z,16.09
2022-10-22T09:21:42.704Z,16.20
2022-10-22T09:24:24.298Z,16.16
2022-10-22T09:26:51.127Z,16.14
2022-10-22T09:29:24.467Z,16.10
2022-10-22T09:31:50.912Z,16.06
2022-10-22T09:34:21.917Z,16.03
2022-10-22T09:36:56.931Z,16.05
2022-10-22T09:39:29.566Z,16.03
2022-10-22T09:41:56.043Z,16.06
2022-10-22T09:44:22.609Z,16.03
2022-10-22T09:46:49.886Z,16.00
2022-10-22T09:49:19.464Z,16.04
2022-10-22T09:51:58.839Z,16.13
2022-10-22T09:54:34.045Z,16.07
2022-10-22T09:57:05.301Z,16.05
2022-10-22T09:59:36.869Z,16.10
2022-10-22T10:02:37.646Z,16.12
2022-10-22T10:05:06.748Z,16.14
2022-10-22T10:07:35.074Z,16.16
2022-10-22T10:10:02.922Z,16.18
2022-10-22T10:12:52.585Z,16.25
2022-10-22T10:15:30.561Z,16.39
2022-10-22T10:18:06.074Z,16.33
2022-10-22T10:20:45.706Z,16.38
2022-10-22T10:23:33.456Z,16.47
2022-10-22T10:26:18.519Z,16.46
2022-10-22T10:29:10.016Z,16.52
2022-10-22T10:32:14.137Z,16.56
2022-10-22T10:34:43.498Z,16.59
2022-10-22T10:37:17.829Z,16.66
2022-10-22T10:40:21.708Z,16.76
2022-10-22T10:43:09.544Z,16.72
2022-10-22T10:46:13.923Z,16.84
2022-10-22T10:48:45.928Z,17.03
2022-10-22T10:51:27.952Z,17.08
2022-10-22T10:54:23.498Z,17.14
2022-10-22T10:56:56.173Z,17.31
2022-10-22T10:59:28.548Z,17.40
2022-10-22T11:02:32.548Z,17.51
2022-10-22T11:05:14.265Z,17.32
2022-10-22T11:07:48.049Z,17.06
2022-10-22T11:10:28.693Z,16.86
2022-10-22T11:13:02.195Z,16.81
2022-10-22T11:15:32.231Z,16.74
2022-10-22T11:18:07.489Z,16.71
2022-10-22T11:20:47.129Z,16.65
2022-10-22T11:23:24.880Z,16.60
2022-10-22T11:25:51.565Z,16.62
2022-10-22T11:28:30.450Z,16.64
2022-10-22T11:31:09.848Z,16.63
2022-10-22T11:34:28.525Z,16.58
2022-10-22T11:36:55.241Z,16.68
2022-10-22T11:39:34.128Z,16.61
2022-10-22T11:42:09.596Z,16.57
2022-10-22T11:45:02.922Z,16.61
2022-10-22T11:47:34.208Z,16.71
2022-10-22T11:50:22.944Z,16.85
2022-10-22T11:52:54.002Z,16.95
2022-10-22T11:55:48.276Z,16.95
2022-10-22T11:58:30.601Z,16.99
2022-10-22T12:00:58.540Z,17.13
2022-10-22T12:03:30.656Z,17.14
2022-10-22T12:06:12.614Z,17.13
2022-10-22T12:08:58.375Z,17.12
2022-10-22T12:11:50.202Z,17.21
2022-10-22T12:14:40.666Z,17.31
2022-10-22T12:17:14.195Z,17.32
2022-10-22T12:19:44.700Z,17.24
2022-10-22T12:22:19.454Z,17.17
2022-10-22T12:24:47.311Z,17.14
2022-10-22T12:27:40.214Z,17.09
2022-10-22T12:30:19.457Z,17.17
2022-10-22T12:32:46.103Z,17.10
2022-10-22T12:35:21.321Z,16.99
2022-10-22T12:37:55.020Z,17.01
2022-10-22T12:40:45.807Z,16.92
2022-10-22T12:43:17.609Z,16.98
2022-10-22T12:45:47.211Z,16.93
2022-10-22T12:48:26.929Z,16.93
2022-10-22T12:50:56.572Z,17.02
2022-10-22T12:53:29.505Z,16.95
2022-10-22T12:56:00.280Z,17.03
2022-10-22T12:58:29.394Z,17.05
2022-10-22T13:00:58.379Z,17.14
2022-10-22T13:03:34.856Z,17.02
2022-10-22T13:06:19.740Z,17.14
2022-10-22T13:08:58.533Z,17.09
2022-10-22T13:11:39.820Z,17.12
2022-10-22T13:14:35.067Z,17.11
2022-10-22T13:17:18.648Z,17.11
2022-10-22T13:19:50.097Z,17.18
2022-10-22T13:22:31.024Z,17.27
2022-10-22T13:25:04.828Z,17.22
2022-10-22T13:27:31.760Z,17.26
2022-10-22T13:30:02.365Z,17.30
2022-10-22T13:32:32.051Z,17.53
2022-10-22T13:35:01.283Z,17.40
2022-10-22T13:37:31.022Z,17.51
2022-10-22T13:39:57.464Z,17.60
2022-10-22T13:42:24.326Z,17.37
2022-10-22T13:44:50.883Z,17.36
2022-10-22T13:47:28.726Z,17.32
2022-10-22T13:50:17.909Z,17.19
2022-10-22T13:52:47.541Z,17.19
2022-10-22T13:55:25.367Z,17.22
2022-10-22T13:57:55.114Z,17.21
2022-10-22T14:00:22.475Z,17.24
2022-10-22T14:02:52.244Z,17.19
2022-10-22T14:05:19.826Z,17.17
2022-10-22T14:07:46.687Z,17.11
2022-10-22T14:10:21.301Z,17.17
2022-10-22T14:12:52.356Z,17.20
2022-10-22T14:15:23.766Z,17.23
2022-10-22T14:17:54.707Z,17.15
2022-10-22T14:20:42.119Z,17.11
2022-10-22T14:23:29.541Z,17.15
2022-10-22T14:25:56.881Z,17.18
2022-10-22T14:28:23.500Z,17.12
2022-10-22T14:30:51.468Z,17.12
2022-10-22T14:33:28.958Z,17.13
2022-10-22T14:35:58.246Z,17.22
2022-10-22T14:38:24.631Z,17.23
2022-10-22T14:40:51.104Z,17.29
2022-10-22T14:43:23.921Z,17.45
2022-10-22T14:45:50.600Z,17.62
2022-10-22T14:50:49.087Z,17.71
2022-10-22T14:53:16.803Z,17.67
2022-10-22T14:55:47.383Z,17.61
2022-10-22T14:58:14.315Z,17.50
2022-10-22T15:00:42.060Z,17.46
2022-10-22T15:03:09.320Z,17.53
2022-10-22T15:05:36.450Z,17.62
2022-10-22T15:08:03.260Z,17.63
2022-10-22T15:10:29.699Z,17.77
2022-10-22T15:12:56.050Z,17.93
2022-10-22T15:15:23.233Z,17.96
2022-10-22T15:17:50.961Z,17.74
2022-10-22T15:20:17.334Z,17.68
2022-10-22T15:22:44.234Z,17.66
2022-10-22T15:25:13.046Z,17.57
2022-10-22T15:27:39.487Z,17.48
2022-10-22T15:30:07.179Z,17.40
2022-10-22T15:32:34.064Z,17.33
2022-10-22T15:35:01.521Z,17.32
2022-10-22T15:37:27.978Z,17.15
2022-10-22T15:39:54.412Z,17.13
2022-10-22T15:42:20.915Z,17.06
2022-10-22T15:44:47.272Z,17.02
2022-10-22T15:47:13.740Z,16.89
2022-10-22T15:49:41.695Z,16.81
2022-10-22T15:52:09.790Z,16.74
2022-10-22T15:54:36.212Z,16.60
2022-10-22T15:57:05.781Z,16.44
2022-10-22T15:59:32.237Z,16.14
2022-10-22T16:01:58.639Z,15.94
2022-10-22T16:04:25.186Z,15.73
2022-10-22T16:06:52.799Z,15.57
2022-10-22T16:09:23.706Z,15.48
2022-10-22T16:11:51.201Z,15.40
2022-10-22T16:14:20.554Z,15.29
2022-10-22T16:16:50.996Z,15.25
2022-10-22T16:19:19.130Z,15.14
2022-10-22T16:21:45.689Z,15.05
2022-10-22T16:24:12.531Z,14.99
2022-10-22T16:26:39.064Z,14.87
2022-10-22T16:29:07.114Z,14.79
2022-10-22T16:31:33.572Z,14.66
2022-10-22T16:34:00.200Z,14.58
2022-10-22T16:36:26.618Z,14.54
2022-10-22T16:38:53.080Z,14.39
2022-10-22T16:41:21.938Z,14.34
2022-10-22T16:43:51.125Z,14.22
2022-10-22T16:46:20.701Z,14.17
2022-10-22T16:48:52.910Z,14.04
2022-10-22T16:51:22.245Z,13.94
2022-10-22T16:53:49.183Z,13.89
2022-10-22T16:56:17.019Z,13.85
2022-10-22T16:58:45.846Z,13.82
2022-10-22T17:01:18.000Z,13.74
2022-10-22T17:03:47.869Z,13.76
2022-10-22T17:06:14.843Z,13.67
2022-10-22T17:08:42.148Z,13.60
2022-10-22T17:11:16.922Z,13.64
2022-10-22T17:13:45.223Z,13.54
2022-10-22T17:16:13.922Z,13.52
2022-10-22T17:18:42.554Z,13.46
2022-10-22T17:21:10.971Z,13.36
2022-10-22T17:23:37.755Z,13.29
2022-10-22T17:26:12.247Z,13.29
2022-10-22T17:28:38.981Z,13.27
2022-10-22T17:31:17.653Z,13.27
2022-10-22T17:33:44.522Z,13.16
2022-10-22T17:36:34.843Z,13.16
2022-10-22T17:39:06.130Z,13.17
2022-10-22T17:41:35.110Z,13.07
2022-10-22T17:44:03.347Z,13.08
2022-10-22T17:46:31.693Z,13.04
2022-10-22T17:49:00.662Z,13.03
2022-10-22T17:51:29.240Z,12.94
2022-10-22T17:53:55.706Z,12.96
2022-10-22T17:56:27.976Z,12.94
2022-10-22T17:58:54.489Z,12.95
2022-10-22T18:01:32.584Z,12.91
2022-10-22T18:04:02.819Z,12.90
2022-10-22T18:06:29.685Z,12.86
2022-10-22T18:08:56.284Z,12.84
2022-10-22T18:11:24.873Z,12.82
2022-10-22T18:13:56.681Z,12.77
2022-10-22T18:16:23.452Z,12.71
2022-10-22T18:18:53.114Z,12.85
2022-10-22T18:21:22.328Z,12.66
2022-10-22T18:23:48.810Z,12.69
2022-10-22T18:26:17.912Z,12.69
2022-10-22T18:28:45.853Z,12.75
2022-10-22T18:31:24.890Z,12.80
2022-10-22T18:36:23.170Z,12.75
2022-10-22T18:38:54.419Z,12.68
2022-10-22T18:41:21.857Z,12.64
2022-10-22T18:44:00.817Z,12.64
2022-10-22T18:46:39.487Z,12.62
2022-10-22T18:49:07.158Z,12.59
2022-10-22T18:51:36.097Z,12.63
2022-10-22T18:54:11.226Z,12.55
2022-10-22T18:56:44.950Z,12.58
2022-10-22T18:59:25.487Z,12.58
2022-10-22T19:01:57.520Z,12.61
2022-10-22T19:04:23.971Z,12.52
2022-10-22T19:06:50.667Z,12.60
2022-10-22T19:09:17.405Z,12.56
2022-10-22T19:11:45.102Z,12.51
2022-10-22T19:14:13.254Z,12.43
2022-10-22T19:16:39.669Z,12.37
2022-10-22T19:19:11.060Z,12.43
2022-10-22T19:21:38.462Z,12.43
2022-10-22T19:24:05.471Z,12.40
2022-10-22T19:26:32.098Z,12.39
2022-10-22T19:28:59.652Z,12.40
2022-10-22T19:31:27.196Z,12.38
2022-10-22T19:33:55.237Z,12.34
2022-10-22T19:36:24.452Z,12.29
2022-10-22T19:38:51.540Z,12.33
2022-10-22T19:41:20.230Z,12.32
2022-10-22T19:43:49.608Z,12.30
2022-10-22T19:46:19.959Z,12.26
2022-10-22T19:48:46.909Z,12.21
2022-10-22T19:51:19.025Z,12.14
2022-10-22T19:53:45.442Z,12.19
2022-10-22T19:56:12.576Z,12.20
2022-10-22T19:58:39.388Z,12.30
2022-10-22T20:01:10.787Z,12.29
2022-10-22T20:03:38.055Z,12.26
2022-10-22T20:06:07.630Z,12.13
2022-10-22T20:08:37.726Z,12.20
2022-10-22T20:11:13.027Z,12.28
2022-10-22T20:16:17.264Z,12.34
2022-10-22T20:18:43.768Z,12.29
2022-10-22T20:21:15.906Z,12.30
2022-10-22T20:23:43.360Z,12.31
2022-10-22T20:26:09.928Z,12.32
2022-10-22T20:28:39.270Z,12.31
2022-10-22T20:31:12.283Z,12.41
2022-10-22T20:33:39.025Z,12.60
2022-10-22T20:36:08.308Z,12.76
2022-10-22T20:41:08.888Z,12.79
2022-10-22T20:43:35.557Z,12.93
2022-10-22T20:46:03.816Z,13.02
2022-10-22T20:48:31.413Z,12.88
2022-10-22T20:50:59.112Z,12.97
2022-10-22T20:53:25.939Z,13.02
2022-10-22T20:55:56.664Z,13.09
2022-10-22T20:58:25.943Z,13.09
2022-10-22T21:00:55.034Z,13.28
2022-10-22T21:03:21.621Z,13.20
2022-10-22T21:05:48.260Z,13.37
2022-10-22T21:08:19.183Z,13.60
2022-10-22T21:10:48.699Z,13.61
2022-10-22T21:13:16.621Z,13.55
2022-10-22T21:15:43.110Z,13.67
2022-10-22T21:18:09.688Z,13.64
2022-10-22T21:20:36.193Z,13.76
2022-10-22T21:23:03.215Z,13.79
2022-10-22T21:25:29.641Z,13.77
2022-10-22T21:27:56.068Z,13.77
2022-10-22T21:30:22.494Z,13.93
2022-10-22T21:32:49.030Z,13.90
2022-10-22T21:35:15.636Z,13.78
2022-10-22T21:37:42.165Z,13.80
2022-10-22T21:40:09.315Z,13.80
2022-10-22T21:42:37.736Z,13.89
2022-10-22T21:45:07.934Z,13.81
2022-10-22T21:47:38.720Z,13.72
2022-10-22T21:50:05.535Z,13.68
2022-10-22T21:52:31.915Z,13.62
2022-10-22T21:54:58.359Z,13.70
2022-10-22T21:57:24.772Z,13.71
2022-10-22T21:59:51.168Z,13.66
2022-10-22T22:02:17.546Z,13.72
2022-10-22T22:04:44.132Z,13.53
2022-10-22T22:07:10.512Z,13.64
2022-10-22T22:09:37.095Z,13.44
2022-10-22T22:12:03.602Z,13.44
2022-10-22T22:14:30.721Z,13.51
2022-10-22T22:16:57.070Z,13.62
2022-10-22T22:19:23.460Z,13.57
2022-10-22T22:21:52.308Z,13.62
2022-10-22T22:24:18.733Z,13.62
2022-10-22T22:26:45.167Z,13.64
2022-10-22T22:29:11.711Z,13.63
2022-10-22T22:31:38.524Z,13.46
2022-10-22T22:34:07.696Z,13.51
2022-10-22T22:36:37.457Z,13.52
2022-10-22T22:39:05.818Z,13.50
2022-10-22T22:41:32.631Z,13.28
2022-10-22T22:43:59.062Z,13.16
2022-10-22T22:46:25.675Z,13.14
2022-10-22T22:48:52.447Z,13.00
2022-10-22T22:51:18.896Z,13.01
2022-10-22T22:53:45.581Z,12.97
2022-10-22T22:56:15.161Z,13.06
2022-10-22T22:58:42.629Z,13.04
2022-10-22T23:01:23.619Z,12.97
2022-10-22T23:04:02.651Z,12.89
2022-10-22T23:06:32.012Z,12.88
2022-10-22T23:08:59.141Z,12.89
2022-10-22T23:11:27.605Z,12.85
2022-10-22T23:13:56.475Z,12.84
2022-10-22T23:16:25.291Z,12.79
2022-10-22T23:18:53.427Z,12.80
2022-10-22T23:21:25.497Z,12.85
2022-10-22T23:23:54.867Z,12.82
2022-10-22T23:26:30.120Z,12.87
2022-10-22T23:29:04.246Z,12.79
2022-10-22T23:31:30.775Z,12.82
2022-10-22T23:33:57.500Z,12.76
2022-10-22T23:36:23.906Z,12.72
2022-10-22T23:38:50.354Z,12.68
2022-10-22T23:41:17.486Z,12.67
2022-10-22T23:43:43.991Z,12.79
2022-10-22T23:46:12.370Z,12.98
2022-10-22T23:48:39.665Z,12.81
2022-10-22T23:51:12.034Z,12.80
2022-10-22T23:53:41.172Z,12.71
2022-10-22T23:56:18.228Z,12.67
2022-10-22T23:58:45.412Z,12.56
